createdAt,value
2022-08-09T00:00:11.420Z,3.20
2022-08-09T00:02:43.070Z,2.88
2022-08-09T00:06:15.244Z,3.10
2022-08-09T00:08:09.919Z,3.13
2022-08-09T00:10:40.604Z,2.95
2022-08-09T00:13:17.680Z,3.58
2022-08-09T00:15:58.944Z,3.20
2022-08-09T00:18:28.869Z,3.00
2022-08-09T00:20:56.857Z,2.83
2022-08-09T00:23:55.231Z,2.50
2022-08-09T00:26:15.121Z,3.22
2022-08-09T00:28:52.974Z,2.70
2022-08-09T00:31:57.651Z,2.67
2022-08-09T00:34:11.644Z,2.75
2022-08-09T00:36:41.707Z,3.80
2022-08-09T00:39:10.952Z,2.35
2022-08-09T00:44:14.880Z,2.90
2022-08-09T00:44:47.282Z,3.03
2022-08-09T00:47:15.903Z,2.38
2022-08-09T00:49:54.653Z,3.45
2022-08-09T00:52:30.627Z,2.88
2022-08-09T00:55:00.927Z,2.60
2022-08-09T00:57:34.931Z,2.28
2022-08-09T01:00:21.901Z,2.80
2022-08-09T01:02:54.822Z,3.00
2022-08-09T01:05:51.746Z,2.83
2022-08-09T01:08:26.951Z,2.97
2022-08-09T01:11:08.853Z,2.75
2022-08-09T01:13:58.946Z,2.40
2022-08-09T01:16:33.380Z,3.05
2022-08-09T01:19:16.929Z,2.97
2022-08-09T01:22:12.411Z,2.65
2022-08-09T01:24:55.099Z,2.78
2022-08-09T01:27:29.308Z,3.13
2022-08-09T01:30:01.029Z,2.97
2022-08-09T01:32:36.017Z,2.50
2022-08-09T01:35:37.914Z,3.13
2022-08-09T01:38:09.460Z,3.30
2022-08-09T01:40:44.889Z,2.50
2022-08-09T01:43:24.228Z,2.80
2022-08-09T01:45:54.367Z,3.10
2022-08-09T01:48:29.720Z,3.30
2022-08-09T01:51:00.629Z,2.92
2022-08-09T01:53:41.598Z,2.70
2022-08-09T01:56:12.050Z,2.42
2022-08-09T01:58:44.728Z,2.83
2022-08-09T02:01:18.459Z,2.83
2022-08-09T02:03:48.359Z,3.63
2022-08-09T02:06:17.904Z,2.90
2022-08-09T02:08:57.660Z,2.58
2022-08-09T02:11:41.976Z,2.90
2022-08-09T02:14:15.919Z,2.70
2022-08-09T02:16:59.948Z,3.45
2022-08-09T02:19:44.421Z,3.28
2022-08-09T02:22:37.957Z,2.65
2022-08-09T02:25:15.030Z,3.17
2022-08-09T02:28:00.177Z,2.85
2022-08-09T02:30:38.345Z,2.60
2022-08-09T02:33:14.374Z,3.17
2022-08-09T02:36:03.407Z,2.70
2022-08-09T02:38:36.075Z,2.70
2022-08-09T02:41:09.252Z,2.80
2022-08-09T02:43:47.710Z,2.97
2022-08-09T02:46:27.939Z,2.92
2022-08-09T02:48:59.963Z,3.75
2022-08-09T02:51:37.215Z,2.95
2022-08-09T02:54:12.383Z,3.47
2022-08-09T02:56:51.118Z,3.25
2022-08-09T02:59:26.583Z,3.20
2022-08-09T03:02:12.317Z,3.03
2022-08-09T03:04:50.798Z,3.80
2022-08-09T03:07:20.638Z,3.28
2022-08-09T03:09:54.410Z,3.40
2022-08-09T03:12:25.607Z,3.45
2022-08-09T03:14:54.318Z,3.53
2022-08-09T03:17:27.155Z,3.50
2022-08-09T03:20:02.730Z,3.53
2022-08-09T03:22:32.361Z,4.05
2022-08-09T03:25:06.427Z,3.25
2022-08-09T03:27:52.818Z,3.15
2022-08-09T03:30:33.168Z,3.72
2022-08-09T03:33:12.954Z,4.18
2022-08-09T03:36:12.922Z,3.58
2022-08-09T03:38:41.619Z,3.55
2022-08-09T03:41:10.326Z,3.35
2022-08-09T03:44:02.784Z,3.63
2022-08-09T03:46:32.265Z,3.80
2022-08-09T03:49:04.323Z,3.08
2022-08-09T03:51:57.643Z,3.72
2022-08-09T03:54:31.000Z,3.47
2022-08-09T03:57:04.488Z,3.50
2022-08-09T03:59:54.614Z,3.70
2022-08-09T04:02:27.145Z,3.60
2022-08-09T04:04:59.067Z,4.03
2022-08-09T04:07:33.754Z,4.43
2022-08-09T04:10:20.239Z,4.15
2022-08-09T04:12:51.784Z,4.40
2022-08-09T04:15:39.140Z,4.18
2022-08-09T04:18:16.704Z,3.85
2022-08-09T04:20:48.256Z,3.78
2022-08-09T04:23:17.896Z,4.10
2022-08-09T04:25:52.066Z,4.05
2022-08-09T04:28:31.433Z,5.15
2022-08-09T04:31:07.930Z,3.95
2022-08-09T04:33:52.157Z,4.97
2022-08-09T04:36:28.316Z,4.28
2022-08-09T04:38:59.302Z,3.70
2022-08-09T04:41:32.782Z,4.13
2022-08-09T04:44:07.252Z,4.15
2022-08-09T04:46:57.156Z,4.22
2022-08-09T04:49:40.533Z,4.32
2022-08-09T04:52:22.032Z,3.72
2022-08-09T04:54:54.872Z,4.40
2022-08-09T04:57:24.547Z,3.80
2022-08-09T04:59:55.055Z,4.07
2022-08-09T05:02:23.420Z,3.70
2022-08-09T05:04:55.080Z,4.35
2022-08-09T05:07:29.091Z,4.10
2022-08-09T05:10:02.222Z,3.08
2022-08-09T05:12:33.057Z,3.40
2022-08-09T05:15:11.400Z,3.55
2022-08-09T05:18:57.408Z,3.85
2022-08-09T05:20:39.498Z,4.35
2022-08-09T05:23:55.115Z,4.22
2022-08-09T05:25:56.948Z,3.60
2022-08-09T05:28:26.975Z,4.32
2022-08-09T05:30:55.209Z,3.53
2022-08-09T05:33:26.354Z,3.30
2022-08-09T05:36:04.066Z,3.95
2022-08-09T05:38:39.187Z,3.90
2022-08-09T05:41:12.649Z,3.45
2022-08-09T05:43:40.894Z,3.67
2022-08-09T05:46:13.836Z,4.10
2022-08-09T05:48:41.657Z,3.70
2022-08-09T05:51:30.299Z,4.30
2022-08-09T05:53:59.885Z,3.50
2022-08-09T05:56:29.001Z,3.55
2022-08-09T05:58:59.139Z,3.97
2022-08-09T06:01:33.526Z,3.90
2022-08-09T06:04:05.435Z,3.70
2022-08-09T06:06:34.329Z,3.25
2022-08-09T06:09:23.057Z,3.25
2022-08-09T06:11:57.678Z,3.80
2022-08-09T06:14:26.340Z,3.55
2022-08-09T06:16:57.230Z,3.80
2022-08-09T06:19:25.335Z,3.70
2022-08-09T06:21:58.382Z,3.40
2022-08-09T06:24:28.512Z,3.35
2022-08-09T06:26:56.750Z,4.10
2022-08-09T06:29:24.887Z,3.33
2022-08-09T06:32:08.770Z,2.97
2022-08-09T06:34:44.556Z,2.90
2022-08-09T06:37:14.440Z,2.70
2022-08-09T06:39:58.182Z,2.65
2022-08-09T06:42:30.818Z,3.40
2022-08-09T06:46:03.529Z,2.83
2022-08-09T06:47:57.933Z,2.50
2022-08-09T06:50:31.091Z,2.58
2022-08-09T06:53:01.154Z,2.20
2022-08-09T06:55:33.060Z,2.40
2022-08-09T06:58:04.575Z,2.53
2022-08-09T07:00:56.018Z,2.55
2022-08-09T07:03:27.629Z,2.58
2022-08-09T07:06:02.399Z,2.90
2022-08-09T07:08:31.331Z,2.43
2022-08-09T07:11:03.296Z,2.73
2022-08-09T07:13:31.651Z,2.10
2022-08-09T07:16:41.951Z,2.70
2022-08-09T07:19:07.826Z,2.40
2022-08-09T07:21:36.649Z,2.40
2022-08-09T07:24:05.139Z,2.17
2022-08-09T07:26:34.786Z,2.33
2022-08-09T07:29:11.930Z,1.60
2022-08-09T07:31:45.044Z,1.90
2022-08-09T07:34:20.651Z,1.97
2022-08-09T07:36:49.839Z,2.13
2022-08-09T07:39:20.421Z,2.20
2022-08-09T07:42:07.718Z,1.87
2022-08-09T07:44:51.663Z,2.43
2022-08-09T07:47:23.250Z,2.10
2022-08-09T07:50:05.299Z,1.40
2022-08-09T07:52:36.008Z,2.47
2022-08-09T07:55:09.977Z,1.47
2022-08-09T07:57:46.892Z,1.67
2022-08-09T08:00:20.178Z,1.70
2022-08-09T08:03:04.558Z,2.17
2022-08-09T08:05:54.077Z,1.73
2022-08-09T08:09:02.145Z,2.03
2022-08-09T08:12:25.170Z,1.70
2022-08-09T08:13:58.369Z,1.90
2022-08-09T08:16:29.983Z,1.80
2022-08-09T08:19:03.133Z,2.73
2022-08-09T08:21:32.256Z,2.07
2022-08-09T08:24:01.004Z,3.40
2022-08-09T08:26:54.972Z,1.73
2022-08-09T08:29:20.011Z,1.70
2022-08-09T08:32:03.121Z,2.00
2022-08-09T08:34:36.291Z,2.47
2022-08-09T08:37:05.287Z,1.93
2022-08-09T08:39:39.715Z,1.60
2022-08-09T08:42:11.900Z,1.73
2022-08-09T08:44:43.222Z,1.63
2022-08-09T08:47:14.456Z,2.10
2022-08-09T08:49:48.419Z,1.53
2022-08-09T08:55:07.688Z,1.60
2022-08-09T08:57:37.635Z,1.67
2022-08-09T09:00:17.198Z,1.80
2022-08-09T09:03:08.347Z,1.87
2022-08-09T09:05:59.041Z,1.80
2022-08-09T09:08:37.705Z,1.50
2022-08-09T09:11:07.084Z,1.97
2022-08-09T09:13:55.244Z,1.30
2022-08-09T09:16:32.380Z,2.07
2022-08-09T09:19:37.572Z,1.67
2022-08-09T09:21:59.032Z,1.63
2022-08-09T09:24:29.786Z,1.50
2022-08-09T09:26:58.872Z,1.57
2022-08-09T09:29:58.198Z,2.10
2022-08-09T09:32:34.374Z,2.00
2022-08-09T09:35:09.074Z,1.93
2022-08-09T09:37:40.531Z,1.57
2022-08-09T09:40:11.691Z,1.90
2022-08-09T09:42:46.011Z,2.17
2022-08-09T09:45:26.307Z,1.47
2022-08-09T09:47:59.571Z,1.80
2022-08-09T09:50:49.800Z,1.53
2022-08-09T09:53:21.442Z,1.60
2022-08-09T09:56:05.500Z,1.70
2022-08-09T09:58:46.372Z,1.90
2022-08-09T10:01:31.216Z,1.90
2022-08-09T10:04:16.342Z,1.90
2022-08-09T10:06:58.831Z,1.80
2022-08-09T10:09:48.701Z,1.57
2022-08-09T10:12:31.292Z,1.50
2022-08-09T10:15:17.443Z,1.77
2022-08-09T10:18:11.675Z,1.90
2022-08-09T10:20:44.800Z,2.10
2022-08-09T10:23:20.363Z,2.17
2022-08-09T10:26:07.714Z,1.20
2022-08-09T10:28:40.560Z,1.97
2022-08-09T10:32:27.629Z,1.83
2022-08-09T10:34:32.876Z,1.97
2022-08-09T10:37:03.475Z,1.57
2022-08-09T10:39:40.615Z,1.80
2022-08-09T10:42:17.107Z,1.80
2022-08-09T10:44:50.088Z,2.20
2022-08-09T10:48:14.473Z,1.50
2022-08-09T10:51:04.976Z,1.53
2022-08-09T10:53:54.603Z,2.03
2022-08-09T10:56:25.365Z,2.00
2022-08-09T10:58:54.893Z,2.13
2022-08-09T11:03:15.622Z,1.80
2022-08-09T11:04:32.651Z,2.10
2022-08-09T11:07:26.528Z,1.70
2022-08-09T11:09:56.430Z,2.10
2022-08-09T11:12:29.446Z,1.90
2022-08-09T11:15:01.410Z,2.00
2022-08-09T11:18:02.644Z,1.90
2022-08-09T11:20:44.902Z,2.13
2022-08-09T11:23:13.678Z,1.50
2022-08-09T11:25:49.297Z,1.90
2022-08-09T11:28:55.960Z,1.80
2022-08-09T11:31:49.243Z,1.93
2022-08-09T11:34:32.116Z,1.90
2022-08-09T11:37:02.176Z,1.97
2022-08-09T11:39:33.527Z,1.70
2022-08-09T11:42:14.644Z,1.70
2022-08-09T11:44:48.419Z,2.40
2022-08-09T11:47:16.625Z,2.73
2022-08-09T11:50:53.114Z,1.97
2022-08-09T11:53:58.773Z,3.03
2022-08-09T11:56:47.556Z,2.17
2022-08-09T11:59:30.432Z,1.70
2022-08-09T12:02:34.334Z,1.90
2022-08-09T12:04:58.709Z,2.50
2022-08-09T12:07:29.149Z,2.10
2022-08-09T12:10:14.055Z,1.67
2022-08-09T12:13:00.318Z,2.00
2022-08-09T12:15:49.796Z,1.67
2022-08-09T12:18:29.889Z,2.57
2022-08-09T12:21:00.654Z,2.10
2022-08-09T12:23:56.286Z,2.43
2022-08-09T12:26:26.202Z,2.70
2022-08-09T12:28:59.582Z,2.10
2022-08-09T12:32:01.551Z,2.20
2022-08-09T12:34:35.728Z,2.27
2022-08-09T12:37:21.755Z,1.80
2022-08-09T12:40:08.041Z,2.00
2022-08-09T12:42:37.676Z,1.73
2022-08-09T12:45:34.440Z,1.67
2022-08-09T12:47:59.940Z,2.13
2022-08-09T12:50:28.821Z,2.13
2022-08-09T12:53:08.703Z,2.03
2022-08-09T12:56:11.884Z,2.07
2022-08-09T12:58:27.682Z,2.13
2022-08-09T13:00:57.845Z,2.17
2022-08-09T13:03:57.097Z,2.87
2022-08-09T13:06:34.074Z,2.23
2022-08-09T13:09:11.035Z,2.37
2022-08-09T13:11:42.795Z,2.10
2022-08-09T13:14:42.610Z,1.90
2022-08-09T13:17:02.639Z,2.27
2022-08-09T13:20:07.753Z,2.23
2022-08-09T13:23:00.337Z,2.40
2022-08-09T13:25:14.278Z,2.00
2022-08-09T13:27:48.683Z,2.43
2022-08-09T13:30:51.176Z,2.20
2022-08-09T13:33:22.729Z,2.80
2022-08-09T13:36:39.106Z,2.33
2022-08-09T13:38:55.688Z,2.30
2022-08-09T13:41:58.177Z,2.37
2022-08-09T13:44:17.019Z,2.10
2022-08-09T13:47:27.327Z,1.83
2022-08-09T13:49:39.774Z,2.57
2022-08-09T13:52:25.096Z,2.63
2022-08-09T13:54:59.068Z,1.83
2022-08-09T13:57:37.412Z,2.27
2022-08-09T14:00:12.511Z,2.40
2022-08-09T14:03:02.789Z,2.17
2022-08-09T14:05:56.563Z,2.47
2022-08-09T14:08:21.570Z,2.53
2022-08-09T14:10:52.716Z,2.70
2022-08-09T14:14:14.695Z,2.77
2022-08-09T14:16:14.713Z,2.80
2022-08-09T14:18:45.932Z,2.90
2022-08-09T14:21:20.193Z,3.37
2022-08-09T14:23:55.547Z,2.40
2022-08-09T14:26:31.826Z,2.07
2022-08-09T14:29:03.149Z,3.00
2022-08-09T14:31:36.362Z,3.07
2022-08-09T14:34:31.217Z,2.67
2022-08-09T14:37:06.674Z,2.33
2022-08-09T14:39:45.260Z,2.67
2022-08-09T14:42:38.954Z,2.87
2022-08-09T14:46:40.044Z,2.80
2022-08-09T14:48:02.140Z,2.93
2022-08-09T14:50:32.871Z,4.00
2022-08-09T14:53:02.042Z,3.50
2022-08-09T14:55:32.570Z,2.90
2022-08-09T14:58:05.765Z,3.10
2022-08-09T15:00:36.717Z,3.53
2022-08-09T15:03:06.756Z,3.20
2022-08-09T15:05:36.696Z,2.63
2022-08-09T15:08:05.241Z,3.10
2022-08-09T15:10:36.353Z,2.77
2022-08-09T15:13:06.006Z,3.40
2022-08-09T15:15:38.864Z,2.57
2022-08-09T15:18:14.063Z,2.77
2022-08-09T15:22:01.174Z,2.50
2022-08-09T15:24:02.326Z,3.03
2022-08-09T15:26:31.703Z,3.03
2022-08-09T15:29:04.396Z,2.57
2022-08-09T15:31:58.953Z,3.43
2022-08-09T15:34:32.703Z,3.10
2022-08-09T15:37:37.160Z,2.47
2022-08-09T15:40:15.240Z,3.00
2022-08-09T15:42:51.286Z,2.87
2022-08-09T15:45:21.730Z,3.23
2022-08-09T15:48:01.847Z,2.70
2022-08-09T15:50:38.952Z,2.63
2022-08-09T15:53:17.754Z,3.17
2022-08-09T15:56:21.546Z,3.10
2022-08-09T15:58:46.443Z,3.37
2022-08-09T16:01:14.724Z,3.40
2022-08-09T16:03:42.716Z,4.17
2022-08-09T16:06:27.367Z,3.53
2022-08-09T16:09:03.232Z,3.00
2022-08-09T16:11:33.548Z,2.60
2022-08-09T16:14:06.831Z,2.90
2022-08-09T16:16:37.214Z,2.97
2022-08-09T16:19:09.365Z,3.00
2022-08-09T16:21:37.453Z,2.80
2022-08-09T16:24:13.011Z,2.77
2022-08-09T16:26:54.760Z,2.83
2022-08-09T16:29:37.985Z,2.40
2022-08-09T16:32:33.718Z,3.50
2022-08-09T16:35:03.869Z,3.40
2022-08-09T16:37:55.904Z,2.77
2022-08-09T16:40:39.751Z,2.80
2022-08-09T16:43:08.877Z,4.40
2022-08-09T16:45:44.055Z,2.83
2022-08-09T16:48:38.469Z,2.90
2022-08-09T16:51:07.572Z,3.60
2022-08-09T16:53:36.994Z,2.40
2022-08-09T16:56:10.297Z,2.70
2022-08-09T16:58:39.818Z,2.70
2022-08-09T17:01:24.788Z,3.03
2022-08-09T17:03:53.190Z,1.97
2022-08-09T17:06:31.765Z,2.90
2022-08-09T17:09:12.173Z,2.60
2022-08-09T17:11:52.677Z,2.53
2022-08-09T17:14:27.588Z,2.47
2022-08-09T17:17:01.567Z,3.10
2022-08-09T17:20:05.209Z,2.50
2022-08-09T17:22:28.801Z,2.73
2022-08-09T17:25:03.587Z,2.20
2022-08-09T17:27:33.823Z,2.37
2022-08-09T17:30:06.748Z,2.87
2022-08-09T17:32:44.374Z,2.87
2022-08-09T17:35:40.768Z,2.53
2022-08-09T17:38:13.777Z,2.43
2022-08-09T17:40:58.053Z,2.83
2022-08-09T17:43:33.891Z,2.37
2022-08-09T17:46:06.610Z,2.80
2022-08-09T17:48:40.051Z,2.37
2022-08-09T17:51:19.233Z,3.37
2022-08-09T17:53:51.829Z,4.10
2022-08-09T17:56:26.650Z,2.80
2022-08-09T17:59:00.000Z,2.50
2022-08-09T18:02:03.737Z,2.20
2022-08-09T18:04:20.157Z,2.63
2022-08-09T18:06:49.738Z,2.80
2022-08-09T18:09:25.146Z,2.47
2022-08-09T18:12:14.941Z,2.70
2022-08-09T18:14:49.910Z,3.00
2022-08-09T18:18:01.607Z,2.67
2022-08-09T18:20:53.887Z,2.60
2022-08-09T18:22:59.807Z,2.75
2022-08-09T18:25:53.503Z,2.88
2022-08-09T18:30:39.170Z,3.25
2022-08-09T18:31:09.492Z,3.50
2022-08-09T18:33:40.222Z,4.45
2022-08-09T18:36:25.427Z,2.75
2022-08-09T18:39:00.866Z,2.70
2022-08-09T18:41:35.016Z,2.70
2022-08-09T18:44:11.323Z,3.00
2022-08-09T18:46:47.835Z,2.85
2022-08-09T18:49:26.635Z,3.03
2022-08-09T18:51:58.115Z,2.53
2022-08-09T18:54:29.731Z,3.22
2022-08-09T18:57:06.413Z,3.35
2022-08-09T18:59:48.869Z,3.40
2022-08-09T19:02:20.063Z,3.35
2022-08-09T19:05:04.053Z,3.03
2022-08-09T19:07:38.328Z,2.75
2022-08-09T19:10:16.664Z,3.00
2022-08-09T19:12:56.937Z,3.80
2022-08-09T19:15:34.875Z,3.38
2022-08-09T19:18:05.563Z,3.15
2022-08-09T19:20:36.846Z,3.58
2022-08-09T19:23:08.939Z,3.00
2022-08-09T19:26:01.886Z,3.40
2022-08-09T19:28:33.977Z,3.67
2022-08-09T19:31:07.810Z,3.15
2022-08-09T19:33:36.889Z,3.55
2022-08-09T19:36:07.086Z,3.35
2022-08-09T19:38:41.181Z,3.45
2022-08-09T19:41:10.996Z,3.65
2022-08-09T19:44:01.785Z,4.00
2022-08-09T19:46:29.517Z,3.33
2022-08-09T19:50:09.569Z,3.03
2022-08-09T19:51:55.802Z,3.55
2022-08-09T19:54:27.162Z,4.07
2022-08-09T19:56:56.018Z,4.32
2022-08-09T19:59:40.011Z,3.85
2022-08-09T20:02:17.238Z,3.65
2022-08-09T20:05:09.923Z,3.92
2022-08-09T20:07:58.599Z,4.20
2022-08-09T20:10:36.875Z,4.07
2022-08-09T20:13:08.434Z,3.35
2022-08-09T20:16:38.240Z,3.60
2022-08-09T20:18:28.000Z,4.88
2022-08-09T20:20:57.077Z,4.30
2022-08-09T20:23:39.338Z,4.07
2022-08-09T20:26:13.252Z,3.90
2022-08-09T20:28:48.375Z,4.13
2022-08-09T20:31:17.839Z,4.72
2022-08-09T20:33:58.268Z,4.32
2022-08-09T20:36:30.483Z,3.95
2022-08-09T20:39:18.848Z,4.40
2022-08-09T20:41:49.288Z,3.83
2022-08-09T20:44:17.400Z,3.95
2022-08-09T20:46:55.123Z,3.95
2022-08-09T20:49:23.792Z,3.83
2022-08-09T20:51:51.740Z,3.60
2022-08-09T20:54:24.671Z,4.60
2022-08-09T20:56:54.240Z,4.20
2022-08-09T20:59:24.995Z,3.70
2022-08-09T21:02:11.560Z,4.10
2022-08-09T21:05:52.071Z,4.72
2022-08-09T21:07:40.270Z,4.07
2022-08-09T21:10:11.851Z,4.65
2022-08-09T21:15:34.651Z,4.07
2022-08-09T21:18:20.975Z,4.50
2022-08-09T21:20:54.461Z,4.03
2022-08-09T21:23:26.485Z,4.47
2022-08-09T21:26:12.331Z,4.28
2022-08-09T21:28:55.835Z,4.35
2022-08-09T21:31:48.894Z,4.70
2022-08-09T21:34:21.023Z,4.07
2022-08-09T21:36:57.259Z,5.22
2022-08-09T21:39:28.133Z,4.10
2022-08-09T21:42:10.572Z,4.07
2022-08-09T21:44:41.177Z,3.90
2022-08-09T21:47:14.116Z,4.20
2022-08-09T21:49:46.431Z,4.45
2022-08-09T21:52:20.552Z,4.72
2022-08-09T21:54:59.301Z,4.90
2022-08-09T21:57:39.560Z,4.65
2022-08-09T22:00:32.489Z,4.82
2022-08-09T22:03:02.894Z,5.18
2022-08-09T22:05:36.858Z,4.30
2022-08-09T22:08:06.999Z,4.47
2022-08-09T22:11:00.196Z,4.68
2022-08-09T22:13:34.725Z,4.82
2022-08-09T22:16:06.468Z,5.00
2022-08-09T22:18:37.110Z,4.55
2022-08-09T22:21:09.210Z,4.63
2022-08-09T22:23:59.400Z,3.90
2022-08-09T22:26:35.179Z,4.25
2022-08-09T22:29:08.869Z,4.15
2022-08-09T22:31:53.291Z,4.43
2022-08-09T22:34:26.605Z,4.22
2022-08-09T22:36:54.789Z,4.75
2022-08-09T22:39:56.135Z,4.07
2022-08-09T22:42:23.247Z,4.15
2022-08-09T22:45:00.128Z,4.68
2022-08-09T22:48:10.693Z,3.80
2022-08-09T22:50:32.204Z,4.20
2022-08-09T22:53:03.520Z,4.13
2022-08-09T22:56:06.134Z,4.35
2022-08-09T22:58:32.319Z,4.00
2022-08-09T23:01:02.911Z,4.40
2022-08-09T23:04:03.782Z,4.22
2022-08-09T23:06:35.047Z,4.22
2022-08-09T23:09:05.615Z,5.10
2022-08-09T23:11:33.724Z,3.95
2022-08-09T23:14:03.125Z,4.55
2022-08-09T23:16:31.502Z,4.70
2022-08-09T23:19:01.515Z,4.38
2022-08-09T23:21:33.633Z,4.35
2022-08-09T23:24:06.381Z,4.03
2022-08-09T23:26:36.200Z,4.22
2022-08-09T23:29:05.338Z,4.53
2022-08-09T23:31:33.772Z,5.05
2022-08-09T23:34:04.469Z,4.43
2022-08-09T23:36:34.157Z,5.15
2022-08-09T23:39:03.443Z,4.60
2022-08-09T23:41:31.824Z,4.30
2022-08-09T23:44:00.847Z,4.25
2022-08-09T23:46:29.699Z,4.15
2022-08-09T23:48:58.203Z,4.32
2022-08-09T23:51:28.601Z,4.70
2022-08-09T23:54:02.952Z,4.50
2022-08-09T23:56:53.328Z,4.28
2022-08-09T23:59:21.566Z,4.75
